sensor_id;sensor_type;location;lat;lon;timestamp;noise_LAeq;noise_LA_min;noise_LA_max;noise_LA01;noise_LA95
66458;Laerm;56835;52.198;4.826;2023-04-08T00:00:04;53.65;51.85;55.01;;
66458;Laerm;56835;52.198;4.826;2023-04-08T00:00:15;53.60;52.14;54.79;;
66458;Laerm;56835;52.198;4.826;2023-04-08T00:00:26;53.67;51.62;55.36;;
66458;Laerm;56835;52.198;4.826;2023-04-08T00:00:36;53.56;51.49;54.85;;
66458;Laerm;56835;52.198;4.826;2023-04-08T00:00:47;53.69;51.95;55.54;;
66458;Laerm;56835;52.198;4.826;2023-04-08T00:00:58;53.61;51.94;54.97;;
66458;Laerm;56835;52.198;4.826;2023-04-08T00:01:08;53.64;51.67;54.87;;
66458;Laerm;56835;52.198;4.826;2023-04-08T00:01:18;53.66;52.05;55.24;;
66458;Laerm;56835;52.198;4.826;2023-04-08T00:01:28;53.68;52.24;54.92;;
66458;Laerm;56835;52.198;4.826;2023-04-08T00:01:39;53.61;51.79;54.89;;
66458;Laerm;56835;52.198;4.826;2023-04-08T00:01:49;53.67;52.11;55.43;;
66458;Laerm;56835;52.198;4.826;2023-04-08T00:01:59;53.67;51.88;54.98;;
66458;Laerm;56835;52.198;4.826;2023-04-08T00:02:10;53.72;51.73;54.92;;
66458;Laerm;56835;52.198;4.826;2023-04-08T00:02:20;53.71;52.35;55.12;;
66458;Laerm;56835;52.198;4.826;2023-04-08T00:02:31;53.66;51.72;55.10;;
66458;Laerm;56835;52.198;4.826;2023-04-08T00:02:41;53.63;51.49;55.00;;
66458;Laerm;56835;52.198;4.826;2023-04-08T00:02:52;53.68;52.15;54.94;;
66458;Laerm;56835;52.198;4.826;2023-04-08T00:03:02;53.70;51.17;55.16;;
66458;Laerm;56835;52.198;4.826;2023-04-08T00:03:12;53.59;51.92;54.82;;
66458;Laerm;56835;52.198;4.826;2023-04-08T00:03:22;53.62;52.13;54.86;;
66458;Laerm;56835;52.198;4.826;2023-04-08T00:03:33;53.65;51.82;55.07;;
66458;Laerm;56835;52.198;4.826;2023-04-08T00:03:43;53.68;52.14;54.94;;
66458;Laerm;56835;52.198;4.826;2023-04-08T00:03:53;53.71;51.92;55.64;;
66458;Laerm;56835;52.198;4.826;2023-04-08T00:04:03;53.70;51.91;55.00;;
66458;Laerm;56835;52.198;4.826;2023-04-08T00:04:14;53.77;52.25;54.93;;
66458;Laerm;56835;52.198;4.826;2023-04-08T00:04:24;53.81;52.21;55.08;;
66458;Laerm;56835;52.198;4.826;2023-04-08T00:04:34;53.71;52.09;54.98;;
66458;Laerm;56835;52.198;4.826;2023-04-08T00:04:45;53.67;52.11;55.02;;
66458;Laerm;56835;52.198;4.826;2023-04-08T00:04:55;53.70;52.08;55.03;;
66458;Laerm;56835;52.198;4.826;2023-04-08T00:05:05;53.63;52.01;55.04;;
66458;Laerm;56835;52.198;4.826;2023-04-08T00:05:16;53.71;51.86;55.11;;
66458;Laerm;56835;52.198;4.826;2023-04-08T00:05:26;53.63;51.50;55.12;;
66458;Laerm;56835;52.198;4.826;2023-04-08T00:05:36;53.75;51.91;55.10;;
66458;Laerm;56835;52.198;4.826;2023-04-08T00:05:46;53.68;52.06;55.18;;
66458;Laerm;56835;52.198;4.826;2023-04-08T00:05:57;53.69;52.18;55.24;;
66458;Laerm;56835;52.198;4.826;2023-04-08T00:06:07;53.74;51.53;55.00;;
66458;Laerm;56835;52.198;4.826;2023-04-08T00:06:17;53.73;52.09;55.13;;
66458;Laerm;56835;52.198;4.826;2023-04-08T00:06:27;53.67;52.07;54.91;;
66458;Laerm;56835;52.198;4.826;2023-04-08T00:06:38;53.68;51.45;55.04;;
66458;Laerm;56835;52.198;4.826;2023-04-08T00:06:48;53.69;51.39;54.82;;
66458;Laerm;56835;52.198;4.826;2023-04-08T00:06:58;53.68;51.80;55.22;;
66458;Laerm;56835;52.198;4.826;2023-04-08T00:07:08;53.68;52.08;55.08;;
66458;Laerm;56835;52.198;4.826;2023-04-08T00:07:19;53.66;51.79;55.25;;
66458;Laerm;56835;52.198;4.826;2023-04-08T00:07:29;53.66;51.97;54.88;;
66458;Laerm;56835;52.198;4.826;2023-04-08T00:07:39;53.68;52.10;54.95;;
66458;Laerm;56835;52.198;4.826;2023-04-08T00:07:50;53.68;51.97;54.86;;
66458;Laerm;56835;52.198;4.826;2023-04-08T00:08:00;53.67;51.92;55.11;;
66458;Laerm;56835;52.198;4.826;2023-04-08T00:08:10;53.66;51.93;55.04;;
66458;Laerm;56835;52.198;4.826;2023-04-08T00:08:20;53.70;51.97;55.18;;
66458;Laerm;56835;52.198;4.826;2023-04-08T00:08:31;53.64;51.58;54.97;;
66458;Laerm;56835;52.198;4.826;2023-04-08T00:08:41;53.74;52.19;54.99;;
66458;Laerm;56835;52.198;4.826;2023-04-08T00:08:51;53.77;51.87;54.93;;
66458;Laerm;56835;52.198;4.826;2023-04-08T00:09:02;53.78;51.93;55.45;;
66458;Laerm;56835;52.198;4.826;2023-04-08T00:09:12;53.76;51.68;55.18;;
66458;Laerm;56835;52.198;4.826;2023-04-08T00:09:22;53.82;51.87;55.62;;
66458;Laerm;56835;52.198;4.826;2023-04-08T00:09:33;53.75;52.08;55.02;;
66458;Laerm;56835;52.198;4.826;2023-04-08T00:09:43;53.70;52.21;55.04;;
66458;Laerm;56835;52.198;4.826;2023-04-08T00:09:53;53.72;52.34;55.14;;
66458;Laerm;56835;52.198;4.826;2023-04-08T00:10:04;53.67;51.85;55.00;;
66458;Laerm;56835;52.198;4.826;2023-04-08T00:10:15;53.73;52.05;55.25;;
66458;Laerm;56835;52.198;4.826;2023-04-08T00:10:25;53.69;51.95;55.14;;
66458;Laerm;56835;52.198;4.826;2023-04-08T00:10:36;53.64;51.70;54.93;;
66458;Laerm;56835;52.198;4.826;2023-04-08T00:10:46;53.66;51.94;55.06;;
66458;Laerm;56835;52.198;4.826;2023-04-08T00:10:56;53.73;52.15;55.42;;
66458;Laerm;56835;52.198;4.826;2023-04-08T00:11:06;53.66;51.61;55.15;;
66458;Laerm;56835;52.198;4.826;2023-04-08T00:11:17;53.73;52.10;54.97;;
66458;Laerm;56835;52.198;4.826;2023-04-08T00:11:27;53.70;51.65;55.41;;
66458;Laerm;56835;52.198;4.826;2023-04-08T00:11:37;53.63;51.60;55.14;;
66458;Laerm;56835;52.198;4.826;2023-04-08T00:11:48;53.68;52.28;55.21;;
66458;Laerm;56835;52.198;4.826;2023-04-08T00:11:58;53.74;52.05;55.18;;
66458;Laerm;56835;52.198;4.826;2023-04-08T00:12:08;53.65;51.73;54.90;;
66458;Laerm;56835;52.198;4.826;2023-04-08T00:12:18;53.70;51.81;55.29;;
66458;Laerm;56835;52.198;4.826;2023-04-08T00:12:29;53.74;52.14;55.05;;
66458;Laerm;56835;52.198;4.826;2023-04-08T00:12:40;53.70;51.80;55.09;;
66458;Laerm;56835;52.198;4.826;2023-04-08T00:12:50;53.67;51.79;55.16;;
66458;Laerm;56835;52.198;4.826;2023-04-08T00:13:00;53.70;51.68;55.20;;
66458;Laerm;56835;52.198;4.826;2023-04-08T00:13:11;53.69;51.95;55.24;;
66458;Laerm;56835;52.198;4.826;2023-04-08T00:13:22;53.67;51.50;55.24;;
66458;Laerm;56835;52.198;4.826;2023-04-08T00:13:32;53.74;51.98;54.73;;
66458;Laerm;56835;52.198;4.826;2023-04-08T00:13:42;53.81;51.95;55.52;;
66458;Laerm;56835;52.198;4.826;2023-04-08T00:13:53;53.69;52.02;54.91;;
66458;Laerm;56835;52.198;4.826;2023-04-08T00:14:03;53.73;52.09;55.45;;
66458;Laerm;56835;52.198;4.826;2023-04-08T00:14:13;53.68;52.24;55.36;;
66458;Laerm;56835;52.198;4.826;2023-04-08T00:14:24;53.72;52.30;55.18;;
66458;Laerm;56835;52.198;4.826;2023-04-08T00:14:34;53.73;51.83;55.09;;
66458;Laerm;56835;52.198;4.826;2023-04-08T00:14:44;53.69;51.56;55.17;;
66458;Laerm;56835;52.198;4.826;2023-04-08T00:14:55;53.68;51.97;54.94;;
66458;Laerm;56835;52.198;4.826;2023-04-08T00:15:05;53.68;51.22;55.53;;
66458;Laerm;56835;52.198;4.826;2023-04-08T00:15:15;53.74;51.70;55.06;;
66458;Laerm;56835;52.198;4.826;2023-04-08T00:15:26;53.73;51.93;55.24;;
66458;Laerm;56835;52.198;4.826;2023-04-08T00:15:36;53.72;51.61;54.87;;
66458;Laerm;56835;52.198;4.826;2023-04-08T00:15:46;53.65;51.75;54.97;;
66458;Laerm;56835;52.198;4.826;2023-04-08T00:15:57;53.76;52.20;55.28;;
66458;Laerm;56835;52.198;4.826;2023-04-08T00:16:07;53.73;51.96;55.48;;
66458;Laerm;56835;52.198;4.826;2023-04-08T00:16:17;53.73;52.03;55.30;;
66458;Laerm;56835;52.198;4.826;2023-04-08T00:16:27;53.67;52.04;54.92;;
66458;Laerm;56835;52.198;4.826;2023-04-08T00:16:38;53.75;51.80;55.52;;
66458;Laerm;56835;52.198;4.826;2023-04-08T00:16:48;53.82;51.92;55.23;;
66458;Laerm;56835;52.198;4.826;2023-04-08T00:16:58;53.73;52.12;55.24;;
66458;Laerm;56835;52.198;4.826;2023-04-08T00:17:08;53.76;51.73;55.58;;
66458;Laerm;56835;52.198;4.826;2023-04-08T00:17:18;53.75;52.12;55.59;;
66458;Laerm;56835;52.198;4.826;2023-04-08T00:17:29;53.73;51.61;55.24;;
66458;Laerm;56835;52.198;4.826;2023-04-08T00:17:40;53.71;52.02;55.26;;
66458;Laerm;56835;52.198;4.826;2023-04-08T00:17:50;53.74;52.13;55.46;;
66458;Laerm;56835;52.198;4.826;2023-04-08T00:18:02;53.82;52.09;55.44;;
66458;Laerm;56835;52.198;4.826;2023-04-08T00:18:13;53.85;52.37;55.16;;
66458;Laerm;56835;52.198;4.826;2023-04-08T00:18:24;53.80;51.96;55.02;;
66458;Laerm;56835;52.198;4.826;2023-04-08T00:18:34;53.81;52.05;55.17;;
66458;Laerm;56835;52.198;4.826;2023-04-08T00:18:47;53.71;51.61;54.87;;
66458;Laerm;56835;52.198;4.826;2023-04-08T00:18:58;53.76;51.90;55.03;;
66458;Laerm;56835;52.198;4.826;2023-04-08T00:19:08;53.77;51.62;55.02;;
66458;Laerm;56835;52.198;4.826;2023-04-08T00:19:18;53.73;51.89;54.92;;
66458;Laerm;56835;52.198;4.826;2023-04-08T00:19:29;53.77;52.00;55.03;;
66458;Laerm;56835;52.198;4.826;2023-04-08T00:19:39;53.75;52.14;55.16;;
66458;Laerm;56835;52.198;4.826;2023-04-08T00:19:50;53.75;51.77;54.95;;
66458;Laerm;56835;52.198;4.826;2023-04-08T00:20:00;53.76;52.19;55.05;;
66458;Laerm;56835;52.198;4.826;2023-04-08T00:20:10;53.84;51.85;55.33;;
66458;Laerm;56835;52.198;4.826;2023-04-08T00:20:21;53.76;52.12;55.18;;
66458;Laerm;56835;52.198;4.826;2023-04-08T00:20:32;53.77;52.12;55.24;;
66458;Laerm;56835;52.198;4.826;2023-04-08T00:20:42;53.78;52.34;55.12;;
66458;Laerm;56835;52.198;4.826;2023-04-08T00:20:53;53.77;52.15;55.32;;
66458;Laerm;56835;52.198;4.826;2023-04-08T00:21:03;53.75;52.15;55.12;;
66458;Laerm;56835;52.198;4.826;2023-04-08T00:21:13;53.76;52.03;55.65;;
66458;Laerm;56835;52.198;4.826;2023-04-08T00:21:26;53.81;52.23;55.07;;
66458;Laerm;56835;52.198;4.826;2023-04-08T00:21:37;53.77;52.19;55.25;;
66458;Laerm;56835;52.198;4.826;2023-04-08T00:21:47;53.75;52.01;55.06;;
66458;Laerm;56835;52.198;4.826;2023-04-08T00:21:58;53.77;51.74;55.22;;
66458;Laerm;56835;52.198;4.826;2023-04-08T00:22:08;53.83;52.13;55.24;;
66458;Laerm;56835;52.198;4.826;2023-04-08T00:22:18;53.81;52.31;55.20;;
66458;Laerm;56835;52.198;4.826;2023-04-08T00:22:29;53.73;51.88;54.98;;
66458;Laerm;56835;52.198;4.826;2023-04-08T00:22:39;53.76;51.75;55.28;;
66458;Laerm;56835;52.198;4.826;2023-04-08T00:22:49;53.71;52.04;55.12;;
66458;Laerm;56835;52.198;4.826;2023-04-08T00:23:00;53.78;51.94;55.01;;
66458;Laerm;56835;52.198;4.826;2023-04-08T00:23:10;53.81;51.93;55.13;;
66458;Laerm;56835;52.198;4.826;2023-04-08T00:23:20;53.83;52.29;55.17;;
66458;Laerm;56835;52.198;4.826;2023-04-08T00:23:31;53.76;52.31;55.52;;
66458;Laerm;56835;52.198;4.826;2023-04-08T00:23:41;53.79;52.23;55.23;;
66458;Laerm;56835;52.198;4.826;2023-04-08T00:23:52;53.83;52.28;55.28;;
66458;Laerm;56835;52.198;4.826;2023-04-08T00:24:02;53.79;52.24;55.10;;
66458;Laerm;56835;52.198;4.826;2023-04-08T00:24:12;53.80;52.53;55.31;;
66458;Laerm;56835;52.198;4.826;2023-04-08T00:24:23;53.78;52.15;55.14;;
66458;Laerm;56835;52.198;4.826;2023-04-08T00:24:33;53.76;52.21;54.97;;
66458;Laerm;56835;52.198;4.826;2023-04-08T00:24:43;53.75;52.19;55.18;;
66458;Laerm;56835;52.198;4.826;2023-04-08T00:24:54;53.68;51.92;54.93;;
66458;Laerm;56835;52.198;4.826;2023-04-08T00:25:04;53.67;51.77;55.02;;
66458;Laerm;56835;52.198;4.826;2023-04-08T00:25:18;53.81;52.16;55.22;;
66458;Laerm;56835;52.198;4.826;2023-04-08T00:25:29;53.77;51.77;54.99;;
66458;Laerm;56835;52.198;4.826;2023-04-08T00:25:39;53.81;52.00;55.21;;
66458;Laerm;56835;52.198;4.826;2023-04-08T00:25:50;53.78;51.84;55.05;;
66458;Laerm;56835;52.198;4.826;2023-04-08T00:26:00;53.83;52.04;55.37;;
66458;Laerm;56835;52.198;4.826;2023-04-08T00:26:10;53.75;51.73;55.16;;
66458;Laerm;56835;52.198;4.826;2023-04-08T00:26:20;53.78;52.65;55.44;;
66458;Laerm;56835;52.198;4.826;2023-04-08T00:26:31;53.88;51.85;55.68;;
66458;Laerm;56835;52.198;4.826;2023-04-08T00:26:41;53.85;51.75;55.52;;
66458;Laerm;56835;52.198;4.826;2023-04-08T00:26:51;53.83;52.23;55.26;;
66458;Laerm;56835;52.198;4.826;2023-04-08T00:27:02;53.80;51.32;55.30;;
66458;Laerm;56835;52.198;4.826;2023-04-08T00:27:12;53.90;52.07;55.14;;
66458;Laerm;56835;52.198;4.826;2023-04-08T00:27:23;53.84;51.81;55.07;;
66458;Laerm;56835;52.198;4.826;2023-04-08T00:27:36;53.88;52.29;55.68;;
66458;Laerm;56835;52.198;4.826;2023-04-08T00:27:46;53.86;52.33;55.39;;
66458;Laerm;56835;52.198;4.826;2023-04-08T00:27:56;53.86;52.34;55.46;;
66458;Laerm;56835;52.198;4.826;2023-04-08T00:28:06;53.96;52.16;55.35;;
66458;Laerm;56835;52.198;4.826;2023-04-08T00:28:18;53.91;52.26;55.11;;
66458;Laerm;56835;52.198;4.826;2023-04-08T00:28:28;53.97;52.10;55.70;;
66458;Laerm;56835;52.198;4.826;2023-04-08T00:28:38;53.92;52.18;55.34;;
66458;Laerm;56835;52.198;4.826;2023-04-08T00:28:48;53.89;51.75;55.52;;
66458;Laerm;56835;52.198;4.826;2023-04-08T00:28:59;53.84;52.13;55.07;;
66458;Laerm;56835;52.198;4.826;2023-04-08T00:29:09;53.96;52.37;55.22;;
66458;Laerm;56835;52.198;4.826;2023-04-08T00:29:20;54.02;52.05;55.60;;
66458;Laerm;56835;52.198;4.826;2023-04-08T00:29:30;53.86;52.23;55.17;;
66458;Laerm;56835;52.198;4.826;2023-04-08T00:29:40;53.98;51.97;55.32;;
66458;Laerm;56835;52.198;4.826;2023-04-08T00:29:50;53.99;52.26;55.28;;
66458;Laerm;56835;52.198;4.826;2023-04-08T00:30:01;53.87;52.19;55.33;;
66458;Laerm;56835;52.198;4.826;2023-04-08T00:30:12;53.88;52.34;55.51;;
66458;Laerm;56835;52.198;4.826;2023-04-08T00:30:22;53.85;51.63;55.10;;
66458;Laerm;56835;52.198;4.826;2023-04-08T00:30:33;53.90;52.27;55.28;;
66458;Laerm;56835;52.198;4.826;2023-04-08T00:30:43;53.90;51.85;55.19;;
66458;Laerm;56835;52.198;4.826;2023-04-08T00:30:53;53.90;52.37;55.12;;
66458;Laerm;56835;52.198;4.826;2023-04-08T00:31:03;53.89;51.76;55.36;;
66458;Laerm;56835;52.198;4.826;2023-04-08T00:31:14;53.89;52.22;55.50;;
66458;Laerm;56835;52.198;4.826;2023-04-08T00:31:24;53.87;52.47;55.43;;
66458;Laerm;56835;52.198;4.826;2023-04-08T00:31:35;54.06;52.36;55.24;;
66458;Laerm;56835;52.198;4.826;2023-04-08T00:31:45;53.94;52.20;55.47;;
66458;Laerm;56835;52.198;4.826;2023-04-08T00:31:56;54.02;52.15;55.38;;
66458;Laerm;56835;52.198;4.826;2023-04-08T00:32:06;53.92;52.29;54.99;;
66458;Laerm;56835;52.198;4.826;2023-04-08T00:32:17;53.89;52.41;55.46;;
66458;Laerm;56835;52.198;4.826;2023-04-08T00:32:27;53.95;52.52;55.53;;
66458;Laerm;56835;52.198;4.826;2023-04-08T00:32:38;53.93;52.45;55.30;;
66458;Laerm;56835;52.198;4.826;2023-04-08T00:32:48;54.02;51.76;55.40;;
66458;Laerm;56835;52.198;4.826;2023-04-08T00:32:58;53.94;52.05;55.54;;
66458;Laerm;56835;52.198;4.826;2023-04-08T00:33:09;53.92;51.99;55.19;;
66458;Laerm;56835;52.198;4.826;2023-04-08T00:33:19;54.02;51.91;55.85;;
66458;Laerm;56835;52.198;4.826;2023-04-08T00:33:29;54.02;52.12;55.69;;
66458;Laerm;56835;52.198;4.826;2023-04-08T00:33:40;53.93;52.19;55.29;;
66458;Laerm;56835;52.198;4.826;2023-04-08T00:33:50;53.91;52.15;55.45;;
66458;Laerm;56835;52.198;4.826;2023-04-08T00:34:00;53.96;52.26;55.40;;
66458;Laerm;56835;52.198;4.826;2023-04-08T00:34:11;53.97;51.66;55.24;;
66458;Laerm;56835;52.198;4.826;2023-04-08T00:34:21;53.95;51.87;55.41;;
66458;Laerm;56835;52.198;4.826;2023-04-08T00:34:31;53.93;51.95;55.50;;
66458;Laerm;56835;52.198;4.826;2023-04-08T00:34:41;54.00;52.39;55.53;;
66458;Laerm;56835;52.198;4.826;2023-04-08T00:34:52;53.96;52.18;55.28;;
66458;Laerm;56835;52.198;4.826;2023-04-08T00:35:03;53.90;51.82;55.30;;
66458;Laerm;56835;52.198;4.826;2023-04-08T00:35:13;53.92;52.48;55.43;;
66458;Laerm;56835;52.198;4.826;2023-04-08T00:35:23;53.97;51.92;55.28;;
66458;Laerm;56835;52.198;4.826;2023-04-08T00:35:47;54.06;52.36;55.66;;
66458;Laerm;56835;52.198;4.826;2023-04-08T00:35:57;54.01;52.07;55.43;;
66458;Laerm;56835;52.198;4.826;2023-04-08T00:36:07;54.11;51.71;55.38;;
66458;Laerm;56835;52.198;4.826;2023-04-08T00:36:17;54.07;52.75;55.85;;
66458;Laerm;56835;52.198;4.826;2023-04-08T00:36:28;54.04;52.30;55.53;;
66458;Laerm;56835;52.198;4.826;2023-04-08T00:36:38;54.04;52.09;55.32;;
66458;Laerm;56835;52.198;4.826;2023-04-08T00:36:49;54.05;52.28;55.49;;
66458;Laerm;56835;52.198;4.826;2023-04-08T00:36:59;54.01;52.57;55.33;;
66458;Laerm;56835;52.198;4.826;2023-04-08T00:37:10;54.00;52.26;55.67;;
66458;Laerm;56835;52.198;4.826;2023-04-08T00:37:21;53.96;52.52;55.11;;
66458;Laerm;56835;52.198;4.826;2023-04-08T00:37:32;54.08;52.39;55.74;;
66458;Laerm;56835;52.198;4.826;2023-04-08T00:37:42;54.03;52.39;55.35;;
66458;Laerm;56835;52.198;4.826;2023-04-08T00:37:52;54.07;52.27;55.58;;
66458;Laerm;56835;52.198;4.826;2023-04-08T00:38:03;54.04;51.17;55.53;;
66458;Laerm;56835;52.198;4.826;2023-04-08T00:38:17;54.09;52.65;56.03;;
66458;Laerm;56835;52.198;4.826;2023-04-08T00:38:27;54.02;52.47;55.39;;
66458;Laerm;56835;52.198;4.826;2023-04-08T00:38:37;54.08;52.16;55.31;;
66458;Laerm;56835;52.198;4.826;2023-04-08T00:38:47;54.09;52.42;55.48;;
66458;Laerm;56835;52.198;4.826;2023-04-08T00:38:58;54.02;52.28;55.49;;
66458;Laerm;56835;52.198;4.826;2023-04-08T00:39:08;54.02;51.65;55.70;;
66458;Laerm;56835;52.198;4.826;2023-04-08T00:39:18;54.08;52.46;55.38;;
66458;Laerm;56835;52.198;4.826;2023-04-08T00:39:28;54.07;52.41;55.78;;
66458;Laerm;56835;52.198;4.826;2023-04-08T00:39:39;54.06;52.18;55.58;;
66458;Laerm;56835;52.198;4.826;2023-04-08T00:39:49;54.06;52.46;55.31;;
66458;Laerm;56835;52.198;4.826;2023-04-08T00:40:00;54.05;52.29;55.36;;
66458;Laerm;56835;52.198;4.826;2023-04-08T00:40:10;54.11;52.36;55.41;;
66458;Laerm;56835;52.198;4.826;2023-04-08T00:40:20;54.03;52.15;55.72;;
66458;Laerm;56835;52.198;4.826;2023-04-08T00:40:31;54.12;52.38;55.57;;
66458;Laerm;56835;52.198;4.826;2023-04-08T00:40:41;54.02;52.04;55.39;;
66458;Laerm;56835;52.198;4.826;2023-04-08T00:40:51;54.05;52.27;55.43;;
66458;Laerm;56835;52.198;4.826;2023-04-08T00:41:01;54.17;52.44;55.51;;
66458;Laerm;56835;52.198;4.826;2023-04-08T00:41:12;54.13;52.23;55.73;;
66458;Laerm;56835;52.198;4.826;2023-04-08T00:41:22;54.11;52.27;55.39;;
66458;Laerm;56835;52.198;4.826;2023-04-08T00:41:33;54.13;52.11;55.83;;
66458;Laerm;56835;52.198;4.826;2023-04-08T00:41:43;54.08;52.50;55.44;;
66458;Laerm;56835;52.198;4.826;2023-04-08T00:41:53;54.08;51.72;55.36;;
66458;Laerm;56835;52.198;4.826;2023-04-08T00:42:05;54.11;52.23;55.53;;
66458;Laerm;56835;52.198;4.826;2023-04-08T00:42:15;54.09;52.45;55.53;;
66458;Laerm;56835;52.198;4.826;2023-04-08T00:42:26;54.13;51.88;55.66;;
66458;Laerm;56835;52.198;4.826;2023-04-08T00:42:36;54.11;52.15;55.61;;
66458;Laerm;56835;52.198;4.826;2023-04-08T00:42:46;54.13;52.48;55.65;;
66458;Laerm;56835;52.198;4.826;2023-04-08T00:42:57;54.12;52.12;55.57;;
66458;Laerm;56835;52.198;4.826;2023-04-08T00:43:07;54.19;52.39;55.64;;
66458;Laerm;56835;52.198;4.826;2023-04-08T00:43:17;54.19;52.10;55.66;;
66458;Laerm;56835;52.198;4.826;2023-04-08T00:43:30;54.10;52.54;55.26;;
66458;Laerm;56835;52.198;4.826;2023-04-08T00:43:40;54.11;51.82;55.34;;
66458;Laerm;56835;52.198;4.826;2023-04-08T00:43:51;54.11;52.13;55.49;;
66458;Laerm;56835;52.198;4.826;2023-04-08T00:44:01;54.22;51.63;55.87;;
66458;Laerm;56835;52.198;4.826;2023-04-08T00:44:12;54.17;52.50;55.49;;
66458;Laerm;56835;52.198;4.826;2023-04-08T00:44:22;54.20;52.04;55.59;;
66458;Laerm;56835;52.198;4.826;2023-04-08T00:44:32;54.16;52.47;56.01;;
66458;Laerm;56835;52.198;4.826;2023-04-08T00:44:42;54.10;52.56;55.72;;
66458;Laerm;56835;52.198;4.826;2023-04-08T00:44:53;54.16;52.01;55.60;;
66458;Laerm;56835;52.198;4.826;2023-04-08T00:45:03;54.15;52.40;55.76;;
66458;Laerm;56835;52.198;4.826;2023-04-08T00:45:14;54.15;52.17;55.78;;
66458;Laerm;56835;52.198;4.826;2023-04-08T00:45:25;54.25;52.69;55.56;;
66458;Laerm;56835;52.198;4.826;2023-04-08T00:45:35;54.18;52.38;55.82;;
66458;Laerm;56835;52.198;4.826;2023-04-08T00:45:46;54.25;52.51;56.01;;
66458;Laerm;56835;52.198;4.826;2023-04-08T00:45:56;54.17;52.55;55.62;;
66458;Laerm;56835;52.198;4.826;2023-04-08T00:46:06;54.18;52.43;55.83;;
66458;Laerm;56835;52.198;4.826;2023-04-08T00:46:18;54.18;52.07;55.59;;
66458;Laerm;56835;52.198;4.826;2023-04-08T00:46:29;54.23;52.44;55.51;;
66458;Laerm;56835;52.198;4.826;2023-04-08T00:46:40;54.18;52.21;55.54;;
66458;Laerm;56835;52.198;4.826;2023-04-08T00:46:50;54.16;52.62;55.88;;
66458;Laerm;56835;52.198;4.826;2023-04-08T00:47:00;54.21;52.61;55.88;;
66458;Laerm;56835;52.198;4.826;2023-04-08T00:47:11;54.16;52.65;55.52;;
66458;Laerm;56835;52.198;4.826;2023-04-08T00:47:21;54.22;52.51;55.84;;
66458;Laerm;56835;52.198;4.826;2023-04-08T00:47:32;54.17;52.43;55.64;;
66458;Laerm;56835;52.198;4.826;2023-04-08T00:47:42;54.15;51.83;55.56;;
66458;Laerm;56835;52.198;4.826;2023-04-08T00:47:52;54.15;52.36;55.41;;
66458;Laerm;56835;52.198;4.826;2023-04-08T00:48:03;54.16;52.21;55.53;;
66458;Laerm;56835;52.198;4.826;2023-04-08T00:48:13;54.21;52.40;55.68;;
66458;Laerm;56835;52.198;4.826;2023-04-08T00:48:24;54.14;52.52;55.47;;
66458;Laerm;56835;52.198;4.826;2023-04-08T00:48:34;54.16;52.25;55.53;;
66458;Laerm;56835;52.198;4.826;2023-04-08T00:48:45;54.21;52.28;55.63;;
66458;Laerm;56835;52.198;4.826;2023-04-08T00:48:55;54.23;52.21;55.69;;
66458;Laerm;56835;52.198;4.826;2023-04-08T00:49:05;54.17;51.51;55.56;;
66458;Laerm;56835;52.198;4.826;2023-04-08T00:49:19;54.19;52.15;55.78;;
66458;Laerm;56835;52.198;4.826;2023-04-08T00:49:30;54.29;52.15;56.12;;
66458;Laerm;56835;52.198;4.826;2023-04-08T00:49:41;54.15;52.34;55.61;;
66458;Laerm;56835;52.198;4.826;2023-04-08T00:49:51;54.17;52.60;55.63;;
66458;Laerm;56835;52.198;4.826;2023-04-08T00:50:02;54.12;52.24;55.59;;
66458;Laerm;56835;52.198;4.826;2023-04-08T00:50:13;54.26;52.25;55.49;;
66458;Laerm;56835;52.198;4.826;2023-04-08T00:50:23;54.18;52.80;55.48;;
66458;Laerm;56835;52.198;4.826;2023-04-08T00:50:33;54.20;52.12;55.53;;
66458;Laerm;56835;52.198;4.826;2023-04-08T00:50:44;54.20;52.58;55.63;;
66458;Laerm;56835;52.198;4.826;2023-04-08T00:50:56;54.28;52.47;55.90;;
66458;Laerm;56835;52.198;4.826;2023-04-08T00:51:06;54.28;52.64;56.04;;
66458;Laerm;56835;52.198;4.826;2023-04-08T00:51:17;54.23;52.41;55.55;;
66458;Laerm;56835;52.198;4.826;2023-04-08T00:51:28;54.22;51.90;55.45;;
66458;Laerm;56835;52.198;4.826;2023-04-08T00:51:38;54.19;52.45;55.69;;
66458;Laerm;56835;52.198;4.826;2023-04-08T00:51:49;54.26;52.20;55.83;;
66458;Laerm;56835;52.198;4.826;2023-04-08T00:52:00;54.33;52.24;55.93;;
66458;Laerm;56835;52.198;4.826;2023-04-08T00:52:10;54.20;52.23;55.81;;
66458;Laerm;56835;52.198;4.826;2023-04-08T00:52:21;54.25;52.38;55.72;;
66458;Laerm;56835;52.198;4.826;2023-04-08T00:52:31;54.19;52.44;55.60;;
66458;Laerm;56835;52.198;4.826;2023-04-08T00:52:41;54.24;52.61;55.71;;
66458;Laerm;56835;52.198;4.826;2023-04-08T00:52:51;54.25;52.69;55.96;;
66458;Laerm;56835;52.198;4.826;2023-04-08T00:53:02;54.28;52.25;55.81;;
66458;Laerm;56835;52.198;4.826;2023-04-08T00:53:14;54.25;52.62;55.67;;
66458;Laerm;56835;52.198;4.826;2023-04-08T00:53:26;54.21;52.43;55.67;;
66458;Laerm;56835;52.198;4.826;2023-04-08T00:53:36;54.26;52.37;55.55;;
66458;Laerm;56835;52.198;4.826;2023-04-08T00:53:46;54.24;52.45;55.51;;
66458;Laerm;56835;52.198;4.826;2023-04-08T00:53:57;54.23;52.30;56.00;;
66458;Laerm;56835;52.198;4.826;2023-04-08T00:54:07;54.26;52.55;55.42;;
66458;Laerm;56835;52.198;4.826;2023-04-08T00:54:17;54.26;52.13;55.75;;
66458;Laerm;56835;52.198;4.826;2023-04-08T00:54:29;54.27;52.65;55.40;;
66458;Laerm;56835;52.198;4.826;2023-04-08T00:54:40;54.26;52.73;55.68;;
66458;Laerm;56835;52.198;4.826;2023-04-08T00:54:50;54.20;52.22;55.39;;
66458;Laerm;56835;52.198;4.826;2023-04-08T00:55:01;54.25;52.48;55.53;;
66458;Laerm;56835;52.198;4.826;2023-04-08T00:55:11;54.25;52.41;55.56;;
66458;Laerm;56835;52.198;4.826;2023-04-08T00:55:21;54.26;52.70;55.52;;
66458;Laerm;56835;52.198;4.826;2023-04-08T00:55:31;54.27;52.73;55.71;;
66458;Laerm;56835;52.198;4.826;2023-04-08T00:55:42;54.28;52.57;55.87;;
66458;Laerm;56835;52.198;4.826;2023-04-08T00:55:52;54.29;52.68;55.70;;
66458;Laerm;56835;52.198;4.826;2023-04-08T00:56:02;54.26;52.07;55.68;;
66458;Laerm;56835;52.198;4.826;2023-04-08T00:56:13;54.29;51.67;55.96;;
66458;Laerm;56835;52.198;4.826;2023-04-08T00:56:23;54.32;52.25;55.86;;
66458;Laerm;56835;52.198;4.826;2023-04-08T00:56:33;54.28;52.41;55.49;;
66458;Laerm;56835;52.198;4.826;2023-04-08T00:56:44;54.28;52.54;55.78;;
66458;Laerm;56835;52.198;4.826;2023-04-08T00:56:54;54.25;52.75;55.79;;
66458;Laerm;56835;52.198;4.826;2023-04-08T00:57:05;54.30;52.50;55.97;;
66458;Laerm;56835;52.198;4.826;2023-04-08T00:57:16;54.30;52.66;55.74;;
66458;Laerm;56835;52.198;4.826;2023-04-08T00:57:27;54.27;52.39;55.69;;
66458;Laerm;56835;52.198;4.826;2023-04-08T00:57:37;54.31;52.33;55.43;;
66458;Laerm;56835;52.198;4.826;2023-04-08T00:57:48;54.25;51.92;55.68;;
66458;Laerm;56835;52.198;4.826;2023-04-08T00:57:58;54.30;51.92;55.60;;
66458;Laerm;56835;52.198;4.826;2023-04-08T00:58:08;54.37;52.77;55.70;;
66458;Laerm;56835;52.198;4.826;2023-04-08T00:58:19;54.36;52.42;55.80;;
66458;Laerm;56835;52.198;4.826;2023-04-08T00:58:29;54.38;52.35;55.63;;
66458;Laerm;56835;52.198;4.826;2023-04-08T00:58:40;54.34;52.21;55.57;;
66458;Laerm;56835;52.198;4.826;2023-04-08T00:58:50;54.37;52.51;56.23;;